Nearby METAR Reports

 

KMLE - Omaha/Millard, Nebraska, USA
Distance from station: NE 1mi, 2km
Updated: Fri, 22-Mar-2019 6:15pm CDT
Clear
Clear
 Wind from SSE
Wind: SSE 5 mph , 7 km/h
Temperature: 59°F , 15°C
Dew Point: 25°F , -4°C
Humidity: 27%
Barometer: 30.14 inHg , 1020.7 hPa
Clouds: Clear
Visibility: 10 miles , 16 km
2019/03/22 23:15 KMLE 222315Z AUTO 16004KT 10SM CLR 15/M04 A3014 RMK AO2 T01511036
KOFF - Offutt Afb/Belle, Nebraska, USA
Distance from station: ESE 12mi, 20km
Updated: Fri, 22-Mar-2019 4:56pm CDT
NOT Current
Clear
Clear
 Wind from SE
Wind: SE 6 mph , 9 km/h
Temperature: 61°F , 16°C
Dew Point: 25°F , -4°C
Humidity: 25%
Barometer: 30.14 inHg , 1020.7 hPa
Clouds: Clear
Visibility: 10 miles , 16 km
2019/03/22 21:56 KOFF 222156Z 13005KT 10SM CLR 16/M04 A3014 RMK AO2A SLPNO ALSTG ESTMD RVRNO PWINO PNO FZRANO TSNO $
 
KOMA - Omaha/Eppley, Nebraska, USA
Distance from station: NE 15mi, 24km
Updated: Fri, 22-Mar-2019 5:52pm CDT
Mostly cloudy
Mostly cloudy
 Wind from NNW
Wind: NNW 6 mph , 9 km/h
Temperature: 61°F , 16°C
Dew Point: 30°F , -1°C
Humidity: 31%
Barometer: 30.13 inHg , 1020.3 hPa
Clouds: Mostly cloudy
Visibility: 10 miles , 16 km
Cloud details: Mostly cloudy 25000 ft
2019/03/22 22:52 KOMA 222252Z 34005KT 10SM BKN250 16/M01 A3013 RMK AO2 SLP207 T01561006
KBTA - Blair Muni, Nebraska, USA
Distance from station: N 16mi, 25km
Updated: Fri, 22-Mar-2019 6:15pm CDT
Clear
Clear
 Wind from SE
Wind: SE 6 mph , 9 km/h
Temperature: 59°F , 15°C
Dew Point: 30°F , -1°C
Humidity: 34%
Barometer: 30.14 inHg , 1020.7 hPa
Clouds: Clear
Visibility: 7 miles , 11 km
2019/03/22 23:15 KBTA 222315Z AUTO 13005KT 7SM CLR 15/M01 A3014 RMK AO2 T01461009
 
KCBF - Council Bluffs, Iowa, USA
Distance from station: ENE 20mi, 32km
Updated: Fri, 22-Mar-2019 6:15pm CDT
Clear
Clear
 Wind from ESE
Wind: ESE 6 mph , 9 km/h
Temperature: 59°F , 15°C
Dew Point: 23°F , -5°C
Humidity: 25%
Barometer: 30.14 inHg , 1020.7 hPa
Clouds: Clear
Visibility: 10 miles , 16 km
2019/03/22 23:15 KCBF 222315Z AUTO 12005KT 10SM CLR 15/M05 A3014 RMK AO2
KPMV - Plattsmouth Muni, Nebraska, USA
Distance from station: SE 20mi, 32km
Updated: Fri, 22-Mar-2019 6:15pm CDT
Clear
Clear
 Wind from calm
Wind: Calm
Temperature: 59°F , 15°C
Dew Point: 25°F , -4°C
Humidity: 27%
Barometer: 30.14 inHg , 1020.7 hPa
Clouds: Clear
Visibility: 10 miles , 16 km
2019/03/22 23:15 KPMV 222315Z AUTO 00000KT 10SM CLR 15/M04 A3014 RMK AO2 T01521037
 
KAHQ - Wahoo, Nebraska, USA
Distance from station: W 25mi, 40km
Updated: Fri, 22-Mar-2019 6:15pm CDT
Clear
Clear
 Wind from E
Wind: E 8 mph , 13 km/h
Temperature: 59°F , 15°C
Dew Point: 34°F , 1°C
Humidity: 39%
Barometer: 30.13 inHg , 1020.3 hPa
Clouds: Clear
Visibility: 10 miles , 16 km
2019/03/22 23:15 KAHQ 222315Z AUTO 09007KT 10SM CLR 15/01 A3013 RMK AO2 T01450010
KFET - Fremont Muni Arp, Nebraska, USA
Distance from station: NW 27mi, 43km
Updated: Fri, 22-Mar-2019 6:15pm CDT
Clear
Clear
 Wind from ESE
Wind: ESE 7 mph , 11 km/h
Temperature: 59°F , 15°C
Dew Point: 25°F , -4°C
Humidity: 27%
Barometer: 30.14 inHg , 1020.7 hPa
Clouds: Clear
Visibility: 10 miles , 16 km
2019/03/22 23:15 KFET 222315Z AUTO 11006KT 10SM CLR 15/M04 A3014 RMK AO2 T01481044
 
KTQE - Tekamah, Nebraska, USA
Distance from station: N 40mi, 64km
Updated: Fri, 22-Mar-2019 5:54pm CDT
Clear
Clear
 Wind from SE
Wind: SE 7 mph , 11 km/h
Temperature: 57°F , 14°C
Dew Point: 34°F , 1°C
Humidity: 41%
Barometer: 30.14 inHg , 1020.7 hPa
Clouds: Clear
Visibility: 10 miles , 16 km
2019/03/22 22:54 KTQE 222254Z AUTO 13006KT 10SM CLR 14/01 A3014 RMK AO2 SLP209 T01390006
KLNK - Lincoln, Nebraska, USA
Distance from station: SW 41mi, 65km
Updated: Fri, 22-Mar-2019 5:54pm CDT
Clear
Clear
 Wind from ESE
Wind: ESE 7 mph , 11 km/h
Temperature: 63°F , 17°C
Dew Point: 30°F , -1°C
Humidity: 30%
Barometer: 30.12 inHg , 1020 hPa
Clouds: Clear
Visibility: 10 miles , 16 km
2019/03/22 22:54 KLNK 222254Z 12006KT 10SM CLR 17/M01 A3012 RMK AO2 SLP202 T01721006
 
KAFK - Nebraska City, Nebraska, USA
Distance from station: SSE 43mi, 70km
Updated: Fri, 22-Mar-2019 6:15pm CDT
Clear
Clear
 Wind from ENE
Wind: ENE 3 mph , 6 km/h
Temperature: 59°F , 15°C
Dew Point: 23°F , -5°C
Humidity: 25%
Barometer: 30.13 inHg , 1020.3 hPa
Clouds: Clear
Visibility: 10 miles , 16 km
2019/03/22 23:15 KAFK 222315Z AUTO 06003KT 10SM CLR 15/M05 A3013 RMK AO2 T01451054
KRDK - Red Oak, Iowa, USA
Distance from station: ESE 47mi, 75km
Updated: Fri, 22-Mar-2019 6:15pm CDT
Clear
Clear
 Wind from ESE
Wind: ESE 5 mph , 7 km/h
Temperature: 59°F , 15°C
Dew Point: 28°F , -2°C
Humidity: 31%
Barometer: 30.14 inHg , 1020.7 hPa
Clouds: Clear
Visibility: 10 miles , 16 km
2019/03/22 23:15 KRDK 222315Z AUTO 11004KT 10SM CLR 15/M02 A3014 RMK AO2
 
KSDA - Shenandoah Muni, Iowa, USA
Distance from station: SE 48mi, 77km
Updated: Fri, 22-Mar-2019 6:15pm CDT
Clear
Clear
 Wind from ESE
Wind: ESE 6 mph , 9 km/h
Temperature: 59°F , 15°C
Dew Point: 28°F , -2°C
Humidity: 31%
Barometer: 30.13 inHg , 1020.3 hPa
Clouds: Clear
Visibility: 10 miles , 16 km
2019/03/22 23:15 KSDA 222315Z AUTO 12005KT 10SM CLR 15/M02 A3013 RMK AO2
KHNR - Harlan Muni, Iowa, USA
Distance from station: NE 49mi, 80km
Updated: Fri, 22-Mar-2019 6:15pm CDT
Clear
Clear
 Wind from E
Wind: E 5 mph , 7 km/h
Temperature: 57°F , 14°C
Dew Point: 25°F , -4°C
Humidity: 29%
Barometer: 30.14 inHg , 1020.7 hPa
Clouds: Clear
Visibility: 10 miles , 16 km
2019/03/22 23:15 KHNR 222315Z AUTO 10004KT 10SM CLR 14/M04 A3014 RMK AO2